Time;durP1;ratioP1;P1;durP2;ratioP2;P2;SDS_P1;SDS_P2;PMS_P1;PMS_P2;Temp;Humidity;BMP_temperature;BMP_pressure;BME280_temperature;BME280_humidity;BME280_pressure;Samples;Min_cycle;Max_cycle;Signal;HPM_P1;HPM_P2
2021/03/10 00:01:17;;;;;;;33.95;15.35;;;;;;;;;;4857869;29;20049;-89
2021/03/10 00:03:45;;;;;;;30.15;16.52;;;;;;;;;;4873744;29;20061;-84
2021/03/10 00:06:13;;;;;;;31.73;14.73;;;;;;;;;;4855601;29;20053;-84
2021/03/10 00:08:40;;;;;;;24.50;14.32;;;;;;;;;;4873391;29;20064;-84
2021/03/10 00:11:08;;;;;;;30.65;14.00;;;;;;;;;;4859050;29;20041;-82
2021/03/10 00:13:36;;;;;;;27.00;15.63;;;;;;;;;;4859445;29;20065;-85
2021/03/10 00:16:05;;;;;;;32.47;15.32;;;;;;;;;;4856044;29;20045;-83
2021/03/10 00:18:33;;;;;;;31.80;13.80;;;;;;;;;;4856852;29;20180;-83
2021/03/10 00:21:00;;;;;;;36.17;17.40;;;;;;;;;;4875067;29;20059;-85
2021/03/10 00:23:28;;;;;;;29.75;15.35;;;;;;;;;;4855738;29;20057;-82
2021/03/10 00:25:56;;;;;;;35.72;16.35;;;;;;;;;;4842140;29;20064;-85
2021/03/10 00:28:23;;;;;;;39.72;17.83;;;;;;;;;;4855391;29;20060;-85
2021/03/10 00:30:51;;;;;;;26.30;13.27;;;;;;;;;;4869680;29;20057;-84
2021/03/10 00:33:19;;;;;;;33.72;15.55;;;;;;;;;;4856823;29;20049;-84
2021/03/10 00:35:51;;;;;;;28.85;14.80;;;;;;;;;;4835283;29;20065;-82
2021/03/10 00:38:21;;;;;;;29.48;14.98;;;;;;;;;;4873541;29;20072;-83
2021/03/10 00:40:49;;;;;;;29.60;15.77;;;7.00;99.90;;;;;;4855934;29;20052;-84
2021/03/10 00:43:19;;;;;;;36.08;16.23;;;;;;;;;;4849034;29;20061;-83
2021/03/10 00:45:46;;;;;;;35.78;16.83;;;;;;;;;;4860222;29;20062;-83
2021/03/10 00:48:14;;;;;;;31.58;15.30;;;;;;;;;;4858662;29;20056;-85
2021/03/10 00:50:42;;;;;;;35.42;15.63;;;;;;;;;;4851255;29;20512;-84
2021/03/10 00:53:09;;;;;;;34.80;15.95;;;;;;;;;;4856638;29;20065;-84
2021/03/10 00:55:37;;;;;;;31.38;16.02;;;;;;;;;;4867108;29;20060;-85
2021/03/10 00:58:05;;;;;;;22.80;13.43;;;;;;;;;;4856287;29;20159;-84
2021/03/10 01:00:33;;;;;;;40.45;15.60;;;;;;;;;;4857619;29;20117;-85
2021/03/10 01:03:02;;;;;;;35.38;14.57;;;7.20;99.90;;;;;;4842800;29;20437;-86
2021/03/10 01:05:47;;;;;;;36.15;17.45;;;;;;;;;;4856965;29;20061;-84
2021/03/10 01:08:15;;;;;;;31.80;14.43;;;;;;;;;;4871663;29;20060;-83
2021/03/10 01:10:46;;;;;;;29.88;15.32;;;;;;;;;;4843539;29;20061;-82
2021/03/10 01:13:14;;;;;;;28.33;13.48;;;;;;;;;;4847266;29;20057;-84
2021/03/10 01:15:42;;;;;;;30.30;16.20;;;;;;;;;;4862072;29;20050;-82
2021/03/10 01:18:10;;;;;;;35.05;15.90;;;;;;;;;;4873170;29;20056;-83
2021/03/10 01:20:37;;;;;;;29.33;15.23;;;;;;;;;;4855123;29;20056;-83
2021/03/10 01:23:05;;;;;;;30.02;15.00;;;;;;;;;;4857063;29;20061;-84
2021/03/10 01:25:33;;;;;;;37.70;15.07;;;;;;;;;;4856165;29;20068;-83
2021/03/10 01:28:00;;;;;;;33.83;15.65;;;;;;;;;;4857460;29;20063;-84
2021/03/10 01:30:28;;;;;;;31.42;17.02;;;;;;;;;;4853664;29;20054;-84
2021/03/10 01:33:00;;;;;;;;;;;7.20;99.90;;;;;;4878730;29;20516;-84
2021/03/10 01:35:30;;;;;;;37.40;14.38;;;;;;;;;;4852285;29;20309;-85
2021/03/10 01:37:58;;;;;;;37.35;15.60;;;;;;;;;;4864247;29;20049;-84
2021/03/10 01:40:27;;;;;;;36.67;16.05;;;7.20;99.90;;;;;;4891591;29;20060;-83
2021/03/10 01:42:55;;;;;;;34.25;18.27;;;;;;;;;;4875006;29;20045;-84
2021/03/10 01:45:22;;;;;;;38.38;18.42;;;;;;;;;;4869894;29;20080;-85
2021/03/10 01:47:51;;;;;;;42.60;18.45;;;;;;;;;;4863726;29;20060;-83
2021/03/10 01:50:20;;;;;;;40.03;19.02;;;;;;;;;;4862753;29;20049;-84
2021/03/10 01:52:48;;;;;;;39.42;17.77;;;;;;;;;;4852923;29;20060;-85
2021/03/10 01:55:16;;;;;;;38.72;18.17;;;;;;;;;;4861777;29;20065;-85
2021/03/10 01:57:44;;;;;;;34.15;16.88;;;;;;;;;;4852936;29;20053;-85
2021/03/10 02:00:15;;;;;;;37.08;17.45;;;7.20;99.90;;;;;;4861441;29;20075;-83
2021/03/10 02:02:45;;;;;;;34.88;17.35;;;;;;;;;;4834379;29;20069;-83
2021/03/10 02:05:17;;;;;;;37.67;19.05;;;7.20;99.90;;;;;;4879166;29;20057;-83
2021/03/10 02:08:06;;;;;;;39.45;21.05;;;7.30;99.90;;;;;;4857270;29;20079;-83
2021/03/10 02:10:44;;;;;;;33.80;15.70;;;;;;;;;;4853872;29;20076;-84
2021/03/10 02:13:33;;;;;;;39.95;16.65;;;7.20;99.90;;;;;;4858185;29;20052;-84
2021/03/10 02:16:21;;;;;;;37.78;17.23;;;7.20;99.90;;;;;;4860180;29;20049;-84
2021/03/10 02:19:30;;;;;;;44.13;17.33;;;7.10;99.90;;;;;;4873816;29;20069;-83
2021/03/10 02:22:28;;;;;;;35.95;17.05;;;7.20;99.90;;;;;;4819262;29;20041;-83
2021/03/10 02:24:56;;;;;;;33.53;18.63;;;;;;;;;;4873533;29;20068;-82
2021/03/10 02:27:57;;;;;;;36.47;17.02;;;7.20;99.90;;;;;;4850626;29;20041;-85
2021/03/10 02:30:34;;;;;;;35.72;18.45;;;7.20;99.90;;;;;;4876376;29;20050;-83
2021/03/10 02:33:08;;;;;;;38.25;18.15;;;7.00;99.90;;;;;;4865453;29;20049;-84
2021/03/10 02:35:46;;;;;;;33.45;17.20;;;7.50;99.90;;;;;;4863198;29;20087;-83
2021/03/10 02:38:18;;;;;;;35.70;16.00;;;7.20;99.90;;;;;;4865229;29;20056;-83
2021/03/10 02:40:46;;;;;;;;;;;7.30;99.90;;;;;;4891314;29;20064;-87
2021/03/10 02:43:18;;;;;;;36.00;18.63;;;7.20;99.90;;;;;;4849144;29;19944;-85
2021/03/10 02:45:47;;;;;;;39.47;18.27;;;;;;;;;;4851576;29;20073;-84
2021/03/10 02:48:17;;;;;;;42.03;19.65;;;7.30;99.90;;;;;;4850912;29;20072;-84
2021/03/10 02:50:46;;;;;;;41.35;20.60;;;7.30;99.90;;;;;;4876989;29;20060;-83
2021/03/10 02:53:21;;;;;;;43.10;19.30;;;;;;;;;;4877936;29;20052;-84
2021/03/10 02:55:57;;;;;;;37.35;18.95;;;;;;;;;;4864048;29;20060;-83
2021/03/10 02:58:25;;;;;;;38.00;19.83;;;;;;;;;;4862308;29;20057;-83
2021/03/10 03:00:53;;;;;;;47.72;20.63;;;;;;;;;;4879246;29;20056;-83
2021/03/10 03:03:20;;;;;;;40.80;18.38;;;;;;;;;;4894536;29;20661;-84
2021/03/10 03:05:48;;;;;;;38.92;19.83;;;;;;;;;;4859842;29;20083;-83
2021/03/10 03:08:16;;;;;;;37.35;19.08;;;;;;;;;;4862839;29;20131;-84
2021/03/10 03:10:44;;;;;;;39.92;19.85;;;;;;;;;;4861787;29;20078;-85
2021/03/10 03:13:19;;;;;;;35.70;19.05;;;7.20;99.90;;;;;;4879711;29;20053;-84
2021/03/10 03:15:54;;;;;;;40.47;18.15;;;7.40;99.90;;;;;;4879279;29;20049;-82
2021/03/10 03:18:22;;;;;;;46.33;20.25;;;;;;;;;;4856321;29;20049;-83
2021/03/10 03:20:50;;;;;;;49.92;20.08;;;7.40;99.90;;;;;;4839847;29;20053;-84
2021/03/10 03:23:18;;;;;;;31.98;18.67;;;;;;;;;;4879285;29;20080;-84
2021/03/10 03:25:47;;;;;;;34.67;17.58;;;7.50;99.90;;;;;;4878881;29;20065;-84
2021/03/10 03:28:19;;;;;;;39.65;19.63;;;7.20;99.90;;;;;;4846408;29;20057;-84
2021/03/10 03:30:49;;;;;;;36.42;19.20;;;7.50;99.90;;;;;;4849292;29;20057;-85
2021/03/10 03:33:20;;;;;;;31.58;17.67;;;7.50;99.90;;;;;;4884513;29;20056;-84
2021/03/10 03:35:52;;;;;;;38.42;20.00;;;7.40;99.90;;;;;;4879654;29;20057;-83
2021/03/10 03:38:24;;;;;;;33.22;18.60;;;7.50;99.90;;;;;;4857656;29;20045;-84
2021/03/10 03:40:53;;;;;;;41.58;18.65;;;7.50;99.90;;;;;;4873977;29;20053;-83
2021/03/10 03:43:27;;;;;;;40.47;20.08;;;7.50;99.90;;;;;;4878924;29;20543;-83
2021/03/10 03:45:54;;;;;;;37.97;18.17;;;;;;;;;;4854535;29;20045;-84
2021/03/10 03:48:23;;;;;;;36.97;19.20;;;;;;;;;;4881043;29;20064;-84
2021/03/10 03:50:50;;;;;;;42.08;17.30;;;;;;;;;;4880311;29;20057;-83
2021/03/10 03:53:18;;;;;;;39.17;18.42;;;;;;;;;;4878050;29;20049;-84
2021/03/10 03:55:45;;;;;;;37.47;21.42;;;;;;;;;;4885075;29;20060;-83
2021/03/10 03:58:13;;;;;;;35.42;17.50;;;;;;;;;;4863479;29;20056;-83
2021/03/10 04:00:41;;;;;;;31.67;18.83;;;;;;;;;;4847210;29;20353;-83
2021/03/10 04:03:09;;;;;;;43.28;18.92;;;;;;;;;;4861074;29;20053;-85
2021/03/10 04:05:37;;;;;;;37.47;18.42;;;;;;;;;;4856509;29;20056;-82
2021/03/10 04:08:07;;;;;;;35.92;19.52;;;;;;;;;;4835222;29;20494;-85
2021/03/10 04:10:37;;;;;;;36.58;20.60;;;7.60;99.90;;;;;;4878672;29;20067;-83
2021/03/10 04:13:05;;;;;;;42.17;16.88;;;;;;;;;;4867793;29;20058;-82
2021/03/10 04:15:33;;;;;;;39.67;20.98;;;7.70;99.90;;;;;;4878298;29;20061;-83
2021/03/10 04:18:03;;;;;;;51.55;22.48;;;;;;;;;;4862108;29;20433;-83
2021/03/10 04:20:30;;;;;;;36.25;18.83;;;;;;;;;;4862601;29;20064;-83
2021/03/10 04:22:58;;;;;;;35.30;18.17;;;;;;;;;;4863628;29;20056;-83
2021/03/10 04:25:26;;;;;;;36.13;19.05;;;;;;;;;;4878018;29;20064;-84
2021/03/10 04:27:54;;;;;;;37.10;19.27;;;;;;;;;;4868046;29;20053;-85
2021/03/10 04:30:22;;;;;;;38.45;19.27;;;7.70;99.90;;;;;;4877236;29;20421;-84
2021/03/10 04:32:51;;;;;;;33.67;17.38;;;;;;;;;;4893832;29;20064;-83
2021/03/10 04:35:23;;;;;;;41.53;18.50;;;;;;;;;;4879314;29;20068;-83
2021/03/10 04:37:51;;;;;;;45.00;22.98;;;;;;;;;;4880251;29;20061;-83
2021/03/10 04:40:19;;;;;;;40.28;21.08;;;7.80;99.90;;;;;;4889312;29;20055;-84
2021/03/10 04:42:47;;;;;;;38.83;21.05;;;;;;;;;;4887404;29;20069;-84
2021/03/10 04:45:15;;;;;;;36.78;22.35;;;7.70;99.90;;;;;;4856073;29;20049;-83
2021/03/10 04:47:43;;;;;;;35.95;17.30;;;7.90;99.90;;;;;;4515556;29;9999969;-83
2021/03/10 04:50:12;;;;;;;37.10;19.17;;;;;;;;;;4873208;29;20068;-83
2021/03/10 04:52:40;;;;;;;33.53;18.10;;;;;;;;;;4876550;29;20053;-83
2021/03/10 04:55:09;;;;;;;40.60;22.20;;;7.80;99.90;;;;;;4892857;29;20135;-84
2021/03/10 04:57:37;;;;;;;33.33;18.17;;;7.60;99.90;;;;;;4865809;29;20053;-83
2021/03/10 05:00:09;;;;;;;42.03;19.52;;;7.80;99.90;;;;;;4880569;29;20057;-83
2021/03/10 05:02:38;;;;;;;38.75;18.52;;;;;;;;;;4877922;29;20065;-84
2021/03/10 05:05:08;;;;;;;43.63;19.98;;;7.80;99.90;;;;;;4887127;29;20068;-84
2021/03/10 05:07:49;;;;;;;55.30;23.98;;;;;;;;;;5095008;27;20379;-83
2021/03/10 05:10:16;;;;;;;36.80;19.30;;;;;;;;;;5097402;28;20052;-84
2021/03/10 05:12:44;;;;;;;38.65;19.70;;;;;;;;;;5080132;28;20060;-82
2021/03/10 05:15:12;;;;;;;45.55;20.00;;;7.90;99.90;;;;;;5100418;28;20048;-83
2021/03/10 05:17:40;;;;;;;41.92;23.42;;;;;;;;;;5080302;28;20064;-83
2021/03/10 05:20:09;;;;;;;42.15;20.70;;;7.90;99.90;;;;;;5096355;28;20052;-83
2021/03/10 05:22:37;;;;;;;39.30;20.52;;;;;;;;;;5077726;28;20061;-83
2021/03/10 05:25:05;;;;;;;37.20;20.33;;;;;;;;;;5083780;28;20048;-83
2021/03/10 05:27:33;;;;;;;38.00;21.55;;;;;;;;;;5096677;28;20044;-83
2021/03/10 05:30:03;;;;;;;42.88;20.83;;;7.80;99.90;;;;;;5078079;28;20051;-84
2021/03/10 05:32:31;;;;;;;52.42;22.42;;;;;;;;;;5080373;28;20095;-83
2021/03/10 05:34:58;;;;;;;46.03;21.98;;;;;;;;;;5074574;28;20375;-83
2021/03/10 05:37:26;;;;;;;50.53;23.77;;;;;;;;;;5076694;28;20040;-82
2021/03/10 05:39:53;;;;;;;46.50;20.67;;;;;;;;;;5079871;28;20566;-82
2021/03/10 05:42:21;;;;;;;41.65;22.10;;;;;;;;;;5097437;28;20052;-82
2021/03/10 05:44:50;;;;;;;49.83;21.88;;;8.10;99.90;;;;;;5056161;28;20053;-84
2021/03/10 05:47:18;;;;;;;33.35;20.25;;;;;;;;;;5051242;28;20059;-83
2021/03/10 05:49:47;;;;;;;50.35;21.98;;;7.80;99.90;;;;;;5068743;28;20041;-84
2021/03/10 05:52:16;;;;;;;47.38;25.60;;;;;;;;;;5070520;28;20048;-83
2021/03/10 05:54:44;;;;;;;49.20;24.15;;;;;;;;;;5087373;28;20048;-83
2021/03/10 05:57:12;;;;;;;46.03;21.40;;;;;;;;;;5070489;28;20406;-82
2021/03/10 05:59:42;;;;;;;44.65;23.95;;;;;;;;;;5087162;28;20063;-84
2021/03/10 06:02:11;;;;;;;54.47;26.92;;;;;;;;;;5066314;28;20439;-83
2021/03/10 06:04:41;;;;;;;53.30;25.77;;;7.80;99.90;;;;;;5067054;28;20059;-83
2021/03/10 06:07:38;;;;;;;45.38;21.88;;;7.90;99.90;;;;;;5066748;28;20067;-84
2021/03/10 06:10:06;;;;;;;52.75;22.55;;;;;;;;;;5071834;28;20052;-86
2021/03/10 06:12:44;;;;;;;45.03;23.45;;;7.80;99.90;;;;;;5079172;28;20044;-83
2021/03/10 06:15:13;;;;;;;59.90;25.30;;;7.90;99.90;;;;;;5098584;28;20057;-83
2021/03/10 06:17:46;;;;;;;44.30;25.23;;;7.80;99.90;;;;;;5084288;28;20542;-82
2021/03/10 06:20:28;;;;;;;47.78;24.17;;;7.80;99.90;;;;;;5072441;28;20049;-84
2021/03/10 06:26:03;;;;;;;44.63;21.42;;;7.80;99.90;;;;;;5014113;28;20413;-83
2021/03/10 06:28:50;;;;;;;44.90;23.23;;;7.70;99.90;;;;;;4982034;28;20416;-83
2021/03/10 06:31:20;;;;;;;49.33;23.33;;;;;;;;;;5012544;28;20401;-85
2021/03/10 06:33:58;;;;;;;42.78;20.00;;;7.80;99.90;;;;;;5005072;28;20054;-83
2021/03/10 06:36:27;;;;;;;36.60;17.95;;;7.80;99.90;;;;;;5009596;28;20065;-83
2021/03/10 06:38:55;;;;;;;51.72;23.20;;;;;;;;;;5014739;28;20045;-83
2021/03/10 06:41:42;;;;;;;47.30;24.45;;;7.80;99.90;;;;;;5023124;28;20053;-84
2021/03/10 06:44:25;;;;;;;47.67;26.55;;;7.70;99.90;;;;;;5028321;28;20069;-84
2021/03/10 06:46:53;;;;;;;49.75;27.13;;;;;;;;;;5011530;28;20053;-84
2021/03/10 06:49:21;;;;;;;54.45;23.25;;;;;;;;;;4995732;28;21033;-82
2021/03/10 06:51:59;;;;;;;59.15;29.67;;;7.70;99.90;;;;;;4989524;28;20461;-83
2021/03/10 06:54:28;;;;;;;41.22;23.35;;;7.70;99.90;;;;;;5006788;28;20400;-82
2021/03/10 06:57:06;;;;;;;58.38;28.45;;;7.60;99.90;;;;;;5000137;28;20676;-84
2021/03/10 06:59:45;;;;;;;63.88;28.92;;;7.80;99.90;;;;;;5008524;28;20125;-85
2021/03/10 07:02:17;;;;;;;50.15;22.83;;;;;;;;;;5000196;28;20394;-83
2021/03/10 07:04:47;;;;;;;59.17;28.58;;;7.70;99.90;;;;;;5010676;28;20076;-83
2021/03/10 07:07:16;;;;;;;51.72;25.95;;;7.60;99.90;;;;;;4987779;28;20050;-83
2021/03/10 07:09:44;;;;;;;56.15;26.40;;;;;;;;;;4997410;28;20042;-83
2021/03/10 07:12:14;;;;;;;58.05;26.80;;;7.60;99.90;;;;;;4994652;28;20061;-83
2021/03/10 07:14:43;;;;;;;54.50;25.35;;;7.40;99.90;;;;;;4977495;28;20054;-86
2021/03/10 07:17:13;;;;;;;50.30;29.35;;;7.60;99.90;;;;;;4995931;28;20050;-84
2021/03/10 07:19:44;;;;;;;56.83;27.27;;;7.80;99.90;;;;;;4998080;28;20399;-82
2021/03/10 07:22:21;;;;;;;46.05;22.33;;;7.60;99.90;;;;;;4980854;28;20050;-85
2021/03/10 07:25:20;;;;;;;52.35;23.20;;;7.60;99.90;;;;;;4970803;28;20054;-83
2021/03/10 07:27:58;;;;;;;54.72;26.17;;;7.60;99.90;;;;;;4996333;28;20043;-82
2021/03/10 07:30:36;;;;;;;43.10;21.75;;;7.60;99.90;;;;;;4990377;28;20054;-83
2021/03/10 07:33:11;;;;;;;45.97;22.40;;;;;;;;;;5017965;28;20057;-81
2021/03/10 07:36:08;;;;;;;51.70;26.25;;;7.60;99.90;;;;;;4995632;28;20054;-84
2021/03/10 07:38:37;;;;;;;49.33;28.08;;;;;;;;;;4980115;28;20058;-82
2021/03/10 07:41:13;;;;;;;45.40;24.85;;;7.60;99.90;;;;;;4996982;28;20050;-83
2021/03/10 07:43:48;;;;;;;55.63;23.92;;;7.60;99.90;;;;;;5003309;28;20066;-82
2021/03/10 07:46:23;;;;;;;54.17;29.33;;;7.60;99.90;;;;;;5014311;28;20062;-82
2021/03/10 07:48:51;;;;;;;54.30;29.50;;;;;;;;;;4971204;28;20046;-85
2021/03/10 07:51:33;;;;;;;52.47;28.15;;;;;;;;;;4991231;28;20050;-92
2021/03/10 07:54:17;;;;;;;51.35;26.48;;;;;;;;;;4991984;28;20458;-90
2021/03/10 07:56:45;;;;;;;50.78;24.58;;;;;;;;;;4979539;28;20045;-90
2021/03/10 07:59:21;;;;;;;57.03;30.60;;;7.60;99.90;;;;;;4979916;28;20041;-90
2021/03/10 08:02:06;;;;;;;47.65;24.35;;;7.60;99.90;;;;;;5001788;28;20056;-90
2021/03/10 08:04:37;;;;;;;40.72;23.27;;;7.40;99.90;;;;;;4996761;28;20046;-89
2021/03/10 08:07:21;;;;;;;45.60;25.13;;;7.40;99.90;;;;;;4972219;28;20062;-90
2021/03/10 08:09:51;;;;;;;57.65;23.77;;;;;;;;;;4967817;28;20061;-93
2021/03/10 08:12:21;;;;;;;52.83;27.38;;;;;;;;;;4962361;28;20051;-91
2021/03/10 08:14:52;;;;;;;46.05;23.48;;;;;;;;;;4980626;28;20067;-90
2021/03/10 08:17:25;;;;;;;54.58;27.10;;;;;;;;;;4963794;28;20061;-91
2021/03/10 08:20:10;;;;;;;64.20;28.25;;;;;;;;;;4985985;28;20398;-90
2021/03/10 08:23:07;;;;;;;55.28;27.80;;;7.70;99.90;;;;;;4989235;28;20219;-91
2021/03/10 08:25:49;;;;;;;48.35;24.27;;;;;;;;;;4969201;28;20069;-89
2021/03/10 08:28:21;;;;;;;50.92;28.45;;;;;;;;;;4963401;28;20053;-86
2021/03/10 08:30:49;;;;;;;47.40;24.38;;;;;;;;;;4962593;28;20055;-90
2021/03/10 08:33:20;;;;;;;50.78;23.50;;;;;;;;;;4989593;28;20046;-90
2021/03/10 08:35:52;;;;;;;57.55;24.67;;;;;;;;;;4995868;28;20050;-89
2021/03/10 08:38:44;;;;;;;54.40;23.08;;;;;;;;;;4988431;28;20038;-90
2021/03/10 08:41:26;;;;;;;54.30;23.60;;;;;;;;;;4997762;28;20037;-89
2021/03/10 08:44:11;;;;;;;53.50;23.45;;;;;;;;;;4985827;28;20050;-90
2021/03/10 08:46:44;;;;;;;48.63;25.15;;;;;;;;;;4982123;28;20047;-89
2021/03/10 08:49:23;;;;;;;46.65;24.45;;;;;;;;;;4976728;28;20055;-88
2021/03/10 08:52:02;;;;;;;51.88;21.90;;;;;;;;;;4958904;28;20054;-91
2021/03/10 08:54:59;;;;;;;44.78;19.58;;;;;;;;;;4974708;28;20521;-91
2021/03/10 08:57:35;;;;;;;53.25;24.60;;;;;;;;;;4976271;28;20058;-90
2021/03/10 09:00:28;;;;;;;40.65;23.70;;;;;;;;;;4985535;28;20058;-87
2021/03/10 09:03:28;;;;;;;44.55;20.70;;;;;;;;;;4993384;28;20052;-90
2021/03/10 09:06:03;;;;;;;41.65;21.50;;;;;;;;;;4972689;28;20118;-90
2021/03/10 09:08:43;;;;;;;36.67;18.60;;;;;;;;;;4985802;28;20066;-90
2021/03/10 09:11:19;;;;;;;45.40;22.27;;;;;;;;;;4976008;28;20057;-92
2021/03/10 09:14:06;;;;;;;34.60;20.25;;;;;;;;;;4975816;28;20061;-91
2021/03/10 09:17:10;;;;;;;42.25;18.80;;;;;;;;;;4993011;28;20061;-93
2021/03/10 09:19:49;;;;;;;37.83;19.52;;;;;;;;;;4991165;28;20061;-90
2021/03/10 09:22:27;;;;;;;39.75;20.90;;;8.10;99.90;;;;;;4987675;28;20053;-89
2021/03/10 09:25:26;;;;;;;37.80;19.17;;;;;;;;;;4994129;28;20440;-90
2021/03/10 09:28:08;;;;;;;37.92;17.35;;;;;;;;;;4962265;28;20049;-90
2021/03/10 09:30:49;;;;;;;37.03;16.33;;;;;;;;;;4964233;28;20050;-89
2021/03/10 09:33:24;;;;;;;40.85;17.58;;;;;;;;;;4972630;28;20050;-90
2021/03/10 09:36:07;;;;;;;37.88;20.35;;;;;;;;;;4982874;28;20050;-88
2021/03/10 09:38:54;;;;;;;33.17;17.95;;;;;;;;;;4989526;28;20436;-89
2021/03/10 09:45:20;;;;;;;38.72;16.95;;;;;;;;;;4966359;23;20056;-90
2021/03/10 09:48:51;;;;;;;50.10;19.40;;;8.20;99.90;;;;;;4885246;29;20058;-91
2021/03/10 09:51:23;;;;;;;31.63;14.43;;;;;;;;;;4918789;29;20059;-89
2021/03/10 09:54:14;;;;;;;30.88;14.57;;;;;;;;;;4923673;29;20054;-90
2021/03/10 09:57:18;;;;;;;31.13;15.43;;;;;;;;;;4914921;29;20070;-90
2021/03/10 09:59:52;;;;;;;33.33;17.02;;;;;;;;;;4565755;29;10000246;-90
2021/03/10 10:02:26;;;;;;;35.95;16.48;;;;;;;;;;4896446;29;20432;-89
2021/03/10 10:04:57;;;;;;;38.90;17.77;;;;;;;;;;4891038;29;20049;-90
2021/03/10 10:07:32;;;;;;;30.50;12.98;;;;;;;;;;4904863;29;20053;-90
2021/03/10 10:10:08;;;;;;;33.78;15.75;;;;;;;;;;4887238;29;20040;-90
2021/03/10 10:12:51;;;;;;;39.70;16.23;;;;;;;;;;4872779;29;20057;-90
2021/03/10 10:15:33;;;;;;;36.78;17.48;;;8.40;99.90;;;;;;4873413;29;20416;-89
2021/03/10 10:18:04;;;;;;;;;;;8.40;99.90;;;;;;4874948;29;20056;-91
2021/03/10 10:20:37;;;;;;;39.88;16.00;;;;;;;;;;4887138;29;19927;-90
2021/03/10 10:23:34;;;;;;;34.38;14.88;;;;;;;;;;4903172;29;20041;-89
2021/03/10 10:30:35;;;;;;;32.08;17.42;;;;;;;;;;4883370;29;20508;-90
2021/03/10 10:33:17;;;;;;;34.80;16.17;;;;;;;;;;4873759;29;20060;-90
2021/03/10 10:35:52;;;;;;;40.15;18.02;;;;;;;;;;4886731;23;20052;-90
2021/03/10 10:38:23;;;;;;;35.58;18.38;;;;;;;;;;4890261;29;20051;-89
2021/03/10 10:40:55;;;;;;;35.13;18.98;;;;;;;;;;4883913;29;20122;-89
2021/03/10 10:43:31;;;;;;;46.35;16.30;;;;;;;;;;4901984;29;20063;-89
2021/03/10 10:46:09;;;;;;;32.00;16.73;;;;;;;;;;4860801;29;20053;-91
2021/03/10 10:48:53;;;;;;;31.20;14.20;;;;;;;;;;4866735;29;20142;-91
2021/03/10 10:51:44;;;;;;;38.08;18.92;;;;;;;;;;4858933;29;20052;-89
2021/03/10 10:54:43;;;;;;;37.83;16.35;;;;;;;;;;4902935;29;20141;-91
2021/03/10 10:57:15;;;;;;;27.70;13.32;;;;;;;;;;4909956;29;20056;-90
2021/03/10 11:00:00;;;;;;;37.47;16.33;;;;;;;;;;4888148;29;20052;-89
2021/03/10 11:02:32;;;;;;;34.63;15.85;;;;;;;;;;4866959;29;21229;-88
2021/03/10 11:05:22;;;;;;;28.42;12.40;;;;;;;;;;4892621;29;20064;-89
2021/03/10 11:08:04;;;;;;;30.60;12.52;;;8.60;99.90;;;;;;4868051;29;20076;-89
2021/03/10 11:10:36;;;;;;;28.42;11.90;;;;;;;;;;4890372;29;20045;-91
2021/03/10 11:13:07;;;;;;;31.23;14.13;;;;;;;;;;4899852;29;20053;-88
2021/03/10 11:15:58;;;;;;;31.25;13.77;;;;;;;;;;4858137;29;20064;-89
2021/03/10 11:18:46;;;;;;;28.63;13.55;;;;;;;;;;4880522;29;20064;-90
2021/03/10 11:21:20;;;;;;;27.65;11.50;;;;;;;;;;4882125;29;20056;-89
2021/03/10 11:23:55;;;;;;;29.33;13.55;;;;;;;;;;4865327;29;20053;-91
2021/03/10 11:26:37;;;;;;;24.65;12.57;;;;;;;;;;4876556;29;20045;-91
2021/03/10 11:29:27;;;;;;;28.20;13.10;;;;;;;;;;4888583;29;20061;-90
2021/03/10 11:31:58;;;;;;;22.03;9.87;;;;;;;;;;4868233;29;20049;-88
2021/03/10 11:34:32;;;;;;;24.73;12.32;;;;;;;;;;4872290;29;20057;-90
2021/03/10 11:37:02;;;;;;;24.65;11.60;;;;;;;;;;4872544;29;20053;-90
2021/03/10 11:39:50;;;;;;;27.00;11.27;;;;;;;;;;4875931;29;20052;-89
2021/03/10 11:42:22;;;;;;;26.70;13.10;;;;;;;;;;4880859;29;20044;-89
2021/03/10 11:44:56;;;;;;;25.55;9.98;;;;;;;;;;4895298;29;20060;-89
2021/03/10 11:47:28;;;;;;;19.00;11.48;;;;;;;;;;4898484;29;20049;-89
2021/03/10 11:49:56;;;;;;;23.70;9.90;;;;;;;;;;4890897;29;20059;-89
2021/03/10 11:52:25;;;;;;;24.20;10.00;;;;;;;;;;4887795;29;20049;-89
2021/03/10 11:54:56;;;;;;;22.15;8.45;;;;;;;;;;4909544;29;20043;-90
2021/03/10 11:57:32;;;;;;;23.20;9.00;;;;;;;;;;4885538;29;20060;-89
2021/03/10 12:00:08;;;;;;;17.75;9.13;;;;;;;;;;4871318;29;20050;-89
2021/03/10 12:02:49;;;;;;;19.83;9.73;;;;;;;;;;4874636;29;20056;-90
2021/03/10 12:05:27;;;;;;;18.30;7.87;;;;;;;;;;4548338;29;9999744;-89
2021/03/10 12:07:59;;;;;;;21.25;9.75;;;;;;;;;;4891566;29;20061;-90
2021/03/10 12:10:56;;;;;;;20.77;8.18;;;8.60;99.90;;;;;;4892100;29;20055;-91
2021/03/10 12:13:43;;;;;;;20.52;7.72;;;;;;;;;;4879412;29;20057;-91
2021/03/10 12:16:14;;;;;;;16.05;8.30;;;;;;;;;;4877172;29;20269;-90
2021/03/10 12:18:48;;;;;;;14.05;7.38;;;;;;;;;;4900972;29;20056;-90
2021/03/10 12:21:19;;;;;;;20.92;7.85;;;;;;;;;;4896604;29;20052;-88
2021/03/10 12:23:56;;;;;;;;;;;8.30;99.90;;;;;;4894320;29;20061;-91
2021/03/10 12:26:30;;;;;;;21.77;8.45;;;;;;;;;;4880810;29;19924;-89
2021/03/10 12:29:02;;;;;;;16.73;7.13;;;;;;;;;;4881859;29;20076;-89
2021/03/10 12:31:37;;;;;;;21.25;8.05;;;;;;;;;;4881469;29;20045;-91
2021/03/10 12:34:09;;;;;;;28.63;9.07;;;;;;;;;;4898349;29;20053;-90
2021/03/10 12:36:38;;;;;;;17.73;7.95;;;;;;;;;;4898358;29;20041;-89
2021/03/10 12:39:08;;;;;;;19.13;7.50;;;;;;;;;;4897268;29;20044;-91
2021/03/10 12:41:50;;;;;;;19.60;6.70;;;;;;;;;;4906186;29;20052;-89
2021/03/10 12:44:23;;;;;;;19.55;8.30;;;;;;;;;;4887099;29;20049;-87
2021/03/10 12:47:07;;;;;;;18.35;7.80;;;;;;;;;;4879085;29;20048;-89
2021/03/10 12:49:37;;;;;;;12.50;6.65;;;;;;;;;;4884705;29;20055;-88
2021/03/10 12:52:09;;;;;;;12.48;6.50;;;;;;;;;;4912939;29;20038;-89
2021/03/10 12:54:38;;;;;;;17.83;6.85;;;;;;;;;;4884139;29;20059;-88
2021/03/10 12:57:11;;;;;;;23.23;8.52;;;8.40;99.90;;;;;;4884754;29;20043;-90
2021/03/10 12:59:45;;;;;;;15.35;6.18;;;;;;;;;;4876973;29;20056;-88
2021/03/10 13:02:15;;;;;;;17.15;6.32;;;;;;;;;;4880096;29;20063;-88
2021/03/10 13:04:47;;;;;;;13.73;6.82;;;;;;;;;;4865338;29;20639;-88
2021/03/10 13:07:24;;;;;;;12.75;6.00;;;;;;;;;;4874639;29;20056;-88
2021/03/10 13:09:54;;;;;;;11.82;6.53;;;8.20;99.90;;;;;;4884473;29;20067;-88
2021/03/10 13:12:25;;;;;;;15.83;5.20;;;;;;;;;;4881252;29;20064;-87
2021/03/10 13:15:10;;;;;;;8.68;4.70;;;;;;;;;;4888309;29;20067;-88
2021/03/10 13:17:46;;;;;;;8.45;4.30;;;;;;;;;;4892202;29;20055;-89
2021/03/10 13:20:23;;;;;;;6.40;3.58;;;;;;;;;;4897981;29;20060;-88
2021/03/10 13:22:53;;;;;;;7.65;3.85;;;;;;;;;;4870424;29;20065;-90
2021/03/10 13:25:24;;;;;;;10.00;4.50;;;;;;;;;;4895383;29;20041;-89
2021/03/10 13:28:02;;;;;;;10.68;3.95;;;;;;;;;;4905510;29;20489;-91
2021/03/10 13:30:39;;;;;;;7.80;3.97;;;;;;;;;;4902376;29;20052;-90
2021/03/10 13:33:20;;;;;;;17.77;5.65;;;;;;;;;;4868486;29;20048;-90
2021/03/10 13:36:16;;;;;;;16.63;5.78;;;;;;;;;;4904524;29;20071;-91
2021/03/10 13:38:50;;;;;;;11.90;4.40;;;;;;;;;;4916598;29;20048;-88
2021/03/10 13:41:23;;;;;;;5.80;3.67;;;;;;;;;;4889581;29;20037;-88
2021/03/10 13:43:54;;;;;;;7.38;3.20;;;;;;;;;;4893770;29;20038;-89
2021/03/10 13:46:30;;;;;;;9.02;4.47;;;;;;;;;;4905468;29;20059;-90
2021/03/10 13:49:06;;;;;;;8.02;3.22;;;;;;;;;;4891140;29;20057;-88
2021/03/10 13:52:08;;;;;;;7.72;3.50;;;8.30;99.90;;;;;;4898760;29;20045;-88
2021/03/10 13:55:01;;;;;;;7.55;3.25;;;;;;;;;;4912791;29;20061;-89
2021/03/10 13:58:00;;;;;;;4.10;2.95;;;;;;;;;;4887836;29;20049;-91
2021/03/10 14:00:46;;;;;;;7.35;3.47;;;;;;;;;;4882652;29;20051;-90
2021/03/10 14:03:20;;;;;;;4.28;2.60;;;;;;;;;;4868416;29;20049;-91
2021/03/10 14:05:53;;;;;;;9.02;3.42;;;;;;;;;;4931281;23;20049;-90
2021/03/10 14:08:22;;;;;;;6.28;3.67;;;;;;;;;;4923199;29;20053;-88
2021/03/10 14:10:51;;;;;;;8.88;3.25;;;;;;;;;;4917014;29;20403;-89
2021/03/10 14:13:24;;;;;;;6.75;3.75;;;;;;;;;;4924059;29;20058;-88
2021/03/10 14:15:58;;;;;;;11.55;3.75;;;;;;;;;;4918668;29;20056;-88
2021/03/10 14:18:38;;;;;;;11.35;4.07;;;;;;;;;;4920537;29;20044;-90
2021/03/10 14:21:26;;;;;;;7.80;3.60;;;;;;;;;;4924269;29;20128;-91
2021/03/10 14:24:20;;;;;;;7.70;2.50;;;;;;;;;;4930630;29;20056;-89
2021/03/10 14:27:00;;;;;;;6.53;3.63;;;;;;;;;;4911035;29;20044;-87
2021/03/10 14:29:33;;;;;;;6.00;3.20;;;;;;;;;;4905906;29;20051;-90
2021/03/10 14:32:02;;;;;;;9.38;3.53;;;;;;;;;;4925711;29;20055;-89
2021/03/10 14:34:31;;;;;;;8.68;2.97;;;;;;;;;;4913978;29;20056;-88
2021/03/10 14:37:05;;;;;;;12.98;3.78;;;;;;;;;;4935020;29;20507;-88
2021/03/10 14:39:34;;;;;;;13.15;3.17;;;;;;;;;;4917271;29;20057;-90
2021/03/10 14:42:03;;;;;;;5.72;3.15;;;;;;;;;;4930003;29;20047;-88
2021/03/10 14:44:32;;;;;;;7.20;3.22;;;;;;;;;;4930568;29;20073;-88